AirNav   Pilot Hours Calculator
 
 820 users online  

0NC8 Flying S Ranch Airport
Cleveland, North Carolina, USA

GOING TO CLEVELAND?


FAA INFORMATION EFFECTIVE 26 MARCH 2020

Location

FAA Identifier: 0NC8
Lat/Long: 35-45-20.5030N 080-44-07.2480W
35-45.341717N 080-44.120800W
35.7556953,-80.7353467
(estimated)
Elevation: 830 ft. / 253 m (estimated)
Variation: 05W (1985)
From city: 4 miles NW of CLEVELAND, NC
Time zone: UTC -4 (UTC -5 during Standard Time)
Zip code: 27013

Airport Operations

Airport use: Private use. Permission required prior to landing
Control tower: no
ARTCC: ATLANTA CENTER
FSS: RALEIGH FLIGHT SERVICE STATION
Attendance: UNATNDD
Wind indicator: yes
Segmented circle: no

Airport Communications

WX AWOS-3 at SVH (11 nm W): 119.225 (704-873-1978)
WX AWOS-3 at RUQ (12 nm SE): 118.175 (704-637-6197)

Nearby radio navigation aids

VOR radial/distance  VOR name  Freq  Var
BZMr111/25.5BARRETTS MOUNTAIN VOR/DME110.8006W
CLTr022/35.5CHARLOTTE VOR/DME115.0005W

 
NDB name  Hdg/Dist  Freq  Var  ID
ROVDY282/12.027506WRU .-. ..-
ZEPHYR189/33.332608WZEF --.. . ..-.
STONIA037/39.726006WGHJ --. .... .---

Airport Services

Runway Information

Runway 3/21

Dimensions: 2300 x 100 ft. / 701 x 30 m
Surface: turf
RUNWAY 3  RUNWAY 21
Traffic pattern: leftleft

Airport Ownership and Management from official FAA records

Ownership: Privately-owned
Owner: SHAVER WOOD PRODUCTS
14440 STATESVILLE RD
CLEVELAND, NC 27013-8791
Phone 704-278-9291
Manager: RICHARD W. SHAVER
14440 STATESVILLE RD
CLEVELAND, NC 27013-8791
Phone (704) 928-5893

Airport Operational Statistics

Aircraft based on the field: 1
Single engine airplanes: 1
    

Additional Remarks

FOR CD CTC CHARLOTTE APCH AT 704-359-0241.

Instrument Procedures

There are no published instrument procedures at 0NC8.

Some nearby airports with instrument procedures:

KSVH - Statesville Regional Airport (11 nm W)
14A - Lake Norman Airpark (12 nm SW)
KRUQ - Mid-Carolina Regional Airport (12 nm SE)
8A7 - Twin Lakes Airport (17 nm NE)
KEXX - Davidson County Airport (21 nm E)
 
Loc | Ops | Rwys | IFR | FBO | Links
Com | Nav | Svcs | Stats | Notes
Area around 0NC8 (Flying S Ranch Airport)
 
Road maps at: MapQuest Bing Google
 
Aerial photo
No photo
 
Sectional chart

 
Airport distance calculator
Flying to Flying S Ranch Airport? Find the distance to fly.

From to 0NC8

Sunrise and sunset
Times for 03-Apr-2020
 Local
(UTC-4)
 Zulu
(UTC)
Morning civil twilight06:4010:40
Sunrise07:0611:06
Sunset19:4623:46
Evening civil twilight20:1200:12

Current date and time
Zulu (UTC)  03-Apr-2020 22:32:42
Local (UTC-4)  03-Apr-2020 18:32:42
 
METAR
KSVH 
10nm W 
032215Z AUTO 33009G15KT 10SM CLR 23/M03 A2988 RMK AO2 T02301030
KRUQ 
12nm SE 
032215Z AUTO 31006KT 10SM CLR 22/M03 A2988 RMK AO2 T02231026
TAF
KHKY 
32nm W 
031734Z 0318/0418 27006KT P6SM FEW200 FM040200 VRB03KT P6SM FEW120 FEW250
KINT 
34nm NE 
031736Z 0318/0418 32011G20KT P6SM FEW250 FM040000 34005KT P6SM SKC
KCLT 
34nm S 
032153Z 0322/0424 30008KT P6SM FEW200 FM040000 34004KT P6SM SCT150 FM041400 01007KT P6SM SCT200
NOTAMs
Click for the latest NOTAMs
NOTAMs are issued by the DoD/FAA and will open in a separate window not controlled by AirNav.

 

 
 

Would you like to see your business listed on this page?

 If your business provides an interesting product or service to pilots, flight crews, aircraft, or users of the Flying S Ranch Airport, you should consider listing it here.  To start the listing process, click on the button below
 
Add a business
 

Other Pages about Flying S Ranch Airport

Update a link
 
Copyright © AirNav, LLC. All rights reserved. Privacy Policy  Contact